Terminal Aerodrome Forecast
Issued by NWS

Home | Current Version | Previous Version | Text Only | Print | Product List | Glossary On
Versions: 1 2 3 4 5 6 7 8 9 10 11 12 13 14 15 16
000
FTPQ31 PGUM 190524 CCA
TAFKMJ
TAF COR
PKMJ 190524Z 1906/2006 08012KT 6SM -RA VCTS SCT016CB BKN040 OVC100
      TEMPO 1906/1909 3SM +SHRA BKN016 OVC025
     FM190900 08011KT P6SM VCSH SCT016 SCT040 BKN120=

USA.gov is the U.S. government's official web portal to all federal, state and local government web resources and services.